• Join FlightAware (Why Join?)
  • Login
  • US Flag 
10:34AM EDT


 

Airport Tracker/Info


-or-


 

Live Flight TrackerFlight Track Log ✈ UAL4457 ✈ 11-Apr-2013 ✈ KLEX - KIAH

Flight Track Log - Related Links

Times and Time Zones

All times are in EDT time to prevent confusion due to time zone crossing. See the UAL4457 flight status page for this flight to view local times or setup timezone preferences in your user account.

Time Position Orientation Groundspeed Altitude Reporting Facility
EDT Latitude Longitude Course Direction KTS MPH feet Rate Location/Type
07:27PM 37.9353 -84.6131 157° South 242 278 5,400  Level Indianapolis Center
07:28PM 37.8828 -84.6481 208° Southwest 221 254 8,500 2,640 Climbing Indianapolis Center
07:30PM 37.8458 -84.7217 238° Southwest 241 277 10,900 1,920 Climbing Indianapolis Center
07:31PM 37.8144 -84.8036 244° Southwest 254 292 12,500 1,500 Climbing Indianapolis Center
07:32PM 37.7778 -85.2458 241° Southwest  Level FlightAware Approximate
07:32PM 37.7731 -84.9147 245° Southwest 294 338 14,100  Level Indianapolis Center
07:33PM 37.7339 -85.0167 244° Southwest 317 365 15,300 1,500 Climbing Indianapolis Center
07:34PM 37.6939 -85.1219 244° Southwest 330 380 17,200 1,740 Climbing Indianapolis Center
07:35PM 37.6539 -85.2269 244° Southwest 330 380 18,900 1,680 Climbing Indianapolis Center
07:36PM 37.6139 -85.3286 244° Southwest 326 375 20,700 1,740 Climbing Indianapolis Center
07:37PM 37.5769 -85.4269 245° Southwest 314 361 22,500 1,560 Climbing Indianapolis Center
07:38PM 37.5381 -85.5278 244° Southwest 315 362 24,000 1,380 Climbing Indianapolis Center
07:39PM 37.4978 -85.6286 243° Southwest 318 366 25,400 1,740 Climbing Indianapolis Center
07:40PM 37.4519 -85.7475 244° Southwest 313 360 27,700 1,680 Climbing Indianapolis Center
07:41PM 37.4144 -85.8453 244° Southwest 310 357 28,900 1,200 Climbing Indianapolis Center
07:42PM 37.3797 -85.9328 243° Southwest 309 356 30,200 1,320 Climbing Indianapolis Center
07:43PM 37.3428 -86.0281 244° Southwest 303 349 31,700 1,500 Climbing Indianapolis Center
07:44PM 37.2992 -86.1358 243° Southwest 294 338 33,300 1,320 Climbing Indianapolis Center
07:45PM 37.2725 -86.1997 242° Southwest 304 350 34,000 960 Climbing Memphis Center
07:46PM 37.2400 -86.2872 245° Southwest 291 335 35,000 480 Climbing Memphis Center
07:47PM 37.2017 -86.3831 243° Southwest 296 341 35,000  Level Memphis Center
07:48PM 37.1631 -86.4839 244° Southwest 315 362 35,000  Level Memphis Center
07:49PM 37.1264 -86.5767 244° Southwest 329 379 35,000  Level Memphis Center
07:50PM 37.0817 -86.6881 243° Southwest 348 400 35,000  Level Memphis Center
07:51PM 37.0369 -86.7967 243° Southwest 353 406 35,000  Level Memphis Center
07:52PM 36.9922 -86.9050 243° Southwest 353 406 35,000  Level Memphis Center
07:53PM 36.9475 -87.0214 244° Southwest 428 493 35,000  Level Memphis Center
07:54PM 36.9006 -87.1375 243° Southwest 404 465 35,000  Level Memphis Center
07:55PM 36.8553 -87.2506 243° Southwest 375 432 35,000  Level Memphis Center
07:56PM 36.8022 -87.3719 241° Southwest 365 420 35,000  Level Memphis Center
07:57PM 36.7547 -87.4875 243° Southwest 371 427 35,000  Level Memphis Center
07:58PM 36.7094 -87.6006 243° Southwest 376 433 35,000  Level Memphis Center
07:59PM 36.6619 -87.7158 243° Southwest 371 427 35,000  Level Memphis Center
08:00PM 36.6144 -87.8314 243° Southwest 371 427 35,000  Level Memphis Center
08:01PM 36.5667 -87.9439 242° Southwest 371 427 35,000 300 Level Memphis Center
08:02PM 36.5208 -88.0564 243° Southwest 371 427 35,600 480 Climbing Memphis Center
08:03PM 36.4769 -88.1633 243° Southwest 366 421 36,000 180 Climbing Memphis Center
08:04PM 36.4289 -88.2756 242° Southwest 366 421 36,000  Level Memphis Center
08:05PM 36.3825 -88.3850 242° Southwest 366 421 36,000  Level Memphis Center
08:06PM 36.3322 -88.4969 241° Southwest 366 421 36,000  Level Memphis Center
08:07PM 36.2839 -88.6114 242° Southwest 371 427 36,000  Level Memphis Center
08:08PM 36.2353 -88.7256 242° Southwest 371 427 36,000  Level Memphis Center
08:09PM 36.1847 -88.8397 241° Southwest 371 427 36,000  Level Memphis Center
08:10PM 36.1358 -88.9486 241° Southwest 371 427 36,000  Level Memphis Center
08:11PM 36.0872 -89.0650 243° Southwest 371 427 36,000  Level Memphis Center
08:12PM 36.0342 -89.1789 240° Southwest 371 427 36,000  Level Memphis Center
08:13PM 35.9872 -89.2925 243° Southwest 371 427 36,000  Level Memphis Center
08:14PM 35.9361 -89.4083 241° Southwest 371 427 36,000  Level Memphis Center
08:15PM 35.8950 -89.5089 243° Southwest 371 427 36,000  Level Memphis Center
08:16PM 35.8436 -89.6194 240° Southwest 371 427 36,000  Level Memphis Center
08:17PM 35.7964 -89.7300 242° Southwest 371 427 36,000  Level Memphis Center
08:18PM 35.7467 -89.8403 241° Southwest 371 427 36,000  Level Memphis Center
08:19PM 35.6972 -89.9531 242° Southwest 371 427 36,000  Level Memphis Center
08:20PM 35.6475 -90.0761 244° Southwest 364 419 36,000  Level Memphis Center
08:21PM 35.5975 -90.1886 241° Southwest 371 427 36,000  Level Memphis Center
08:22PM 35.5289 -90.2806 227° Southwest 376 433 36,000  Level Memphis Center
08:23PM 35.4497 -90.3672 222° Southwest 375 432 36,000  Level Memphis Center
08:24PM 35.3683 -90.4514 220° Southwest 382 440 36,000  Level Memphis Center
08:25PM 35.2972 -90.5250 220° Southwest 382 440 36,000  Level Memphis Center
08:26PM 35.2136 -90.6086 219° Southwest 388 447 36,000  Level Memphis Center
08:27PM 35.1322 -90.6922 220° Southwest 388 447 36,000  Level Memphis Center
08:28PM 35.0525 -90.7756 221° Southwest 388 447 36,000  Level Memphis Center
08:29PM 34.9667 -90.8614 219° Southwest 388 447 36,000  Level Memphis Center
08:30PM 34.8850 -90.9469 221° Southwest 388 447 36,000  Level Memphis Center
08:31PM 34.8033 -91.0272 219° Southwest 388 447 36,000  Level Memphis Center
08:32PM 34.7214 -91.1125 221° Southwest 388 447 36,000  Level Memphis Center
08:33PM 34.6289 -91.2028 219° Southwest 388 447 36,000  Level Memphis Center
08:34PM 34.5469 -91.2900 221° Southwest 392 451 36,000  Level Memphis Center
08:35PM 34.4650 -91.3722 220° Southwest 392 451 36,000  Level Memphis Center
08:36PM 34.3767 -91.4569 218° Southwest 397 457 36,000  Level Memphis Center
08:37PM 34.2903 -91.5464 221° Southwest 403 464 36,000  Level Memphis Center
08:38PM 34.2017 -91.6306 218° Southwest 408 470 36,000  Level Memphis Center
08:39PM 34.1300 -91.7047 221° Southwest 414 476 36,000  Level Memphis Center
08:40PM 34.0350 -91.7983 219° Southwest 400 460 36,000  Level Memphis Center
08:41PM 33.9569 -91.8797 221° Southwest 385 443 36,000  Level Memphis Center
08:42PM 33.8233 -92.0083 219° Southwest 397 457 36,000  Level Fort Worth Center
08:43PM 33.7350 -92.0911 218° Southwest 402 463 36,000  Level Fort Worth Center
08:44PM 33.6489 -92.1764 220° Southwest 402 463 36,000  Level Fort Worth Center
08:45PM 33.5625 -92.2586 218° Southwest 402 463 36,000  Level Fort Worth Center
08:46PM 33.4764 -92.3433 219° Southwest 402 463 36,000  Level Fort Worth Center
08:47PM 33.3853 -92.4158 214° Southwest 402 463 36,000  Level Fort Worth Center
08:48PM 33.2714 -92.4419 191° South 402 463 36,000  Level Fort Worth Center
08:49PM 33.1681 -92.4628 190° South 402 463 36,000  Level Fort Worth Center
08:50PM 33.0558 -92.4789 187° South 414 476 36,000  Level Fort Worth Center
08:51PM 32.9442 -92.5000 189° South 414 476 36,000  Level Fort Worth Center
08:52PM 32.8300 -92.5211 189° South 414 476 36,000  Level Fort Worth Center
08:54PM 32.5822 -92.5675 189° South 420 483 36,000  Level Houston Center
08:55PM 32.4650 -92.5867 188° South 424 488 36,000  Level Houston Center
08:56PM 32.3508 -92.6106 190° South 421 484 36,000  Level Houston Center
08:57PM 32.2319 -92.6300 188° South 428 493 36,000  Level Houston Center
08:58PM 32.1144 -92.6514 189° South 428 493 36,000 -60 Level Houston Center
08:59PM 31.9972 -92.6719 188° South 427 491 35,900  Descending Houston Center
09:00PM 31.8875 -92.7581 214° Southwest 395 455 36,000  Climbing Houston Center
09:01PM 31.8036 -92.8417 220° Southwest 395 455 36,000 -60 Level Houston Center
09:02PM 31.7200 -92.9219 219° Southwest 390 449 35,900  Descending Houston Center
09:04PM 31.6361 -93.0031 219° Southwest 391 450 36,000  Climbing Houston Center
09:05PM 31.5514 -93.0844 219° Southwest 392 451 36,000  Level Houston Center
09:06PM 31.4661 -93.1661 219° Southwest 397 457 36,000  Level Houston Center
09:07PM 31.3822 -93.2461 219° Southwest 392 451 36,000  Level Houston Center
09:08PM 31.2950 -93.3306 220° Southwest 385 443 36,000 -540 Level Houston Center
09:09PM 31.1981 -93.4217 219° Southwest 392 451 34,900 -1,320 Descending Houston Center
09:10PM 31.1142 -93.5028 220° Southwest 393 452 33,400 -1,500 Descending Houston Center
09:11PM 31.0286 -93.5836 219° Southwest 396 456 31,900 -1,500 Descending Houston Center
09:12PM 30.9433 -93.6636 219° Southwest 396 456 30,400 -1,500 Descending Houston Center
09:13PM 30.8586 -93.7439 219° Southwest 395 455 28,900 -1,500 Descending Houston Center
09:14PM 30.7753 -93.8233 219° Southwest 392 451 27,400 -1,500 Descending Houston Center
09:15PM 30.6908 -93.9028 219° Southwest 392 451 25,900 -1,620 Descending Houston Center
09:16PM 30.5906 -93.9969 219° Southwest 391 450 24,100 -2,100 Descending Houston Center
09:17PM 30.5056 -94.0756 219° Southwest 394 453 21,600 -2,760 Descending Houston Center
09:18PM 30.4461 -94.1306 219° Southwest 391 450 19,500 -3,000 Descending Houston Center
09:18PM 30.4233 -94.1531 220° Southwest 384 442 18,600 -3,300 Descending Houston Center
09:18PM 30.3692 -94.2014 218° Southwest 367 422 16,500 -2,880 Descending Houston Center
09:19PM 30.3453 -94.2267 222° Southwest 366 421 15,700 -2,040 Descending Houston Center
09:19PM 30.3042 -94.2658 219° Southwest 346 398 14,600 -1,980 Descending Houston Center
09:20PM 30.2717 -94.2947 218° Southwest 344 396 13,700 -2,160 Descending Houston Center
09:20PM 30.2211 -94.3397 218° Southwest 336 387 12,200 -1,680 Descending Houston Center
09:21PM 30.2011 -94.3608 222° Southwest 327 376 12,000 -900 Descending Houston Center
09:21PM 30.1761 -94.4158 242° Southwest 275 316 11,300 -1,200 Descending Houston Center
09:22PM 30.1686 -94.4392 250° West 277 319 10,800 -1,200 Descending Houston Center
09:23PM 30.1500 -94.4917 248° West 258 297 10,100 -1,200 Descending Houston Center
09:23PM 30.1367 -94.5289 248° West 258 297 9,600 -1,140 Descending Houston Center
09:24PM 30.1200 -94.5731 246° West 258 297 9,000 -1,020 Descending Houston Center
09:24PM 30.1083 -94.6050 247° West 258 297 8,600 -900 Descending Houston Center
09:25PM 30.0883 -94.6592 247° West 260 299 8,000 -600 Descending Houston Center
09:25PM 30.0803 -94.6814 247° West 258 297 8,000  Level Houston Center
09:26PM 30.0597 -94.7328 245° Southwest 263 303 8,000  Level Houston Center
09:26PM 30.0517 -94.7594 251° West 262 302 8,000 -420 Level Houston Center
09:27PM 30.0300 -94.8164 246° West 261 300 7,600 -780 Descending Houston Center
09:27PM 30.0236 -94.8356 249° West 259 298 7,200 -1,380 Descending Houston Center
09:28PM 30.0033 -94.8897 247° West 241 277 6,200 -1,380 Descending Houston Center
09:28PM 29.9981 -94.9050 248° West 240 276 5,800 -1,320 Descending Houston Center
09:29PM 29.9931 -94.9586 264° West 218 251 4,900 -1,140 Descending Houston Center
09:29PM 29.9933 -94.9742 271° West 218 251 4,700 -1,020 Descending Houston Center
09:30PM 29.9928 -95.0214 269° West 216 249 4,000 -1,080 Descending Houston Center
09:30PM 29.9933 -95.0567 271° West 215 247 3,600 -780 Descending Houston Center
09:31PM 29.9925 -95.0864 268° West 220 253 3,300 -600 Descending Houston Center
09:31PM 29.9936 -95.1275 272° West 220 253 3,000 -480 Descending Houston Center
09:32PM 29.9933 -95.1636 270° West 207 238 2,800 -600 Descending Houston Center
09:32PM 29.9936 -95.1917 271° West 209 241 2,400 -900 Descending Houston Center
09:33PM 29.9928 -95.2239 268° West 174 200 1,900 -1,020 Descending Houston Center